createdAt,value
2019-03-06T00:01:50.135Z,100593.69
2019-03-06T00:06:44.087Z,100581.97
2019-03-06T00:11:37.949Z,100572.78
2019-03-06T00:16:31.775Z,100578.68
2019-03-06T00:21:25.815Z,100566.13
2019-03-06T00:26:19.680Z,100556.22
2019-03-06T00:31:13.530Z,100549.61
2019-03-06T00:36:09.288Z,100539.44
2019-03-06T00:41:05.057Z,100541.23
2019-03-06T00:45:58.982Z,100538.37
2019-03-06T00:50:53.159Z,100535.47
2019-03-06T00:55:47.025Z,100535.08
2019-03-06T01:00:40.847Z,100539.05
2019-03-06T01:05:34.995Z,100525.58
2019-03-06T01:10:28.828Z,100519.23
2019-03-06T01:15:22.698Z,100511.31
2019-03-06T01:20:16.945Z,100512.41
2019-03-06T01:25:18.502Z,100519.17
2019-03-06T01:30:18.110Z,100521.87
2019-03-06T01:35:21.428Z,100513.98
2019-03-06T01:40:29.502Z,100504.13
2019-03-06T01:45:23.550Z,100496.17
2019-03-06T01:50:17.412Z,100490.14
2019-03-06T01:55:12.387Z,100481.00
2019-03-06T02:00:09.947Z,100481.13
2019-03-06T02:05:07.632Z,100469.73
2019-03-06T02:10:01.693Z,100463.38
2019-03-06T02:14:55.569Z,100462.77
2019-03-06T02:19:49.521Z,100453.07
2019-03-06T02:24:43.357Z,100447.17
2019-03-06T02:29:37.232Z,100431.33
2019-03-06T02:34:31.110Z,100418.12
2019-03-06T02:39:24.972Z,100412.97
2019-03-06T02:44:18.863Z,100408.75
2019-03-06T02:49:12.684Z,100402.89
2019-03-06T02:54:06.584Z,100392.22
2019-03-06T02:59:02.309Z,100395.83
2019-03-06T03:04:07.176Z,100392.12
2019-03-06T03:09:01.276Z,100381.20
2019-03-06T03:13:55.171Z,100361.59
2019-03-06T03:18:49.270Z,100358.95
2019-03-06T03:23:43.122Z,100346.61
2019-03-06T03:28:37.046Z,100338.05
2019-03-06T03:33:31.103Z,100338.05
2019-03-06T03:38:24.940Z,100336.66
2019-03-06T03:43:18.796Z,100344.61
2019-03-06T03:48:12.645Z,100330.82
2019-03-06T03:53:06.538Z,100330.38
2019-03-06T03:58:00.385Z,100311.16
2019-03-06T04:02:54.344Z,100311.90
2019-03-06T04:07:48.210Z,100291.94
2019-03-06T04:12:42.058Z,100278.63
2019-03-06T04:17:35.918Z,100275.39
2019-03-06T04:22:29.781Z,100284.88
2019-03-06T04:27:23.595Z,100284.16
2019-03-06T04:32:17.468Z,100288.11
2019-03-06T04:37:11.385Z,100292.18
2019-03-06T04:42:05.244Z,100297.22
2019-03-06T04:46:59.264Z,100286.79
2019-03-06T04:51:53.154Z,100275.73
2019-03-06T04:56:47.003Z,100255.08
2019-03-06T05:01:41.039Z,100258.06
2019-03-06T05:06:34.991Z,100239.56
2019-03-06T05:11:28.899Z,100234.88
2019-03-06T05:16:24.661Z,100225.62
2019-03-06T05:21:18.508Z,100244.01
2019-03-06T05:26:12.358Z,100236.78
2019-03-06T05:31:06.325Z,100243.63
2019-03-06T05:36:32.441Z,100228.25
2019-03-06T05:41:26.788Z,100223.91
2019-03-06T05:46:20.736Z,100200.36
2019-03-06T05:51:14.578Z,100190.64
2019-03-06T05:56:08.458Z,100179.72
2019-03-06T06:01:02.550Z,100163.98
2019-03-06T06:05:56.400Z,100162.94
2019-03-06T06:10:50.314Z,100162.69
2019-03-06T06:15:47.173Z,100152.70
2019-03-06T06:20:41.213Z,100147.20
2019-03-06T06:25:36.068Z,100137.09
2019-03-06T06:30:30.213Z,100132.63
2019-03-06T06:35:24.087Z,100129.25
2019-03-06T06:40:18.054Z,100126.62
2019-03-06T06:45:13.201Z,100114.33
2019-03-06T06:50:08.365Z,100108.68
2019-03-06T06:55:09.106Z,100096.91
2019-03-06T07:00:28.769Z,100087.73
2019-03-06T07:05:30.351Z,100087.11
2019-03-06T07:10:42.712Z,100074.73
2019-03-06T07:15:41.335Z,100073.00
2019-03-06T07:20:46.644Z,100054.56
2019-03-06T07:25:45.458Z,100034.42
2019-03-06T07:30:41.231Z,100030.45
2019-03-06T07:36:00.303Z,100036.91
2019-03-06T07:40:58.823Z,100019.61
2019-03-06T07:46:00.724Z,100017.16
2019-03-06T07:51:05.755Z,100030.56
2019-03-06T07:56:01.577Z,100013.00
2019-03-06T08:00:55.440Z,100012.27
2019-03-06T08:05:49.286Z,100001.46
2019-03-06T08:10:43.259Z,99987.75
2019-03-06T08:15:39.329Z,99999.84
2019-03-06T08:20:35.220Z,99999.98
2019-03-06T08:25:37.237Z,99988.28
2019-03-06T08:30:33.085Z,99985.98
2019-03-06T08:35:26.945Z,99969.42
2019-03-06T08:40:21.110Z,99974.84
2019-03-06T08:45:34.993Z,99965.63
2019-03-06T08:50:31.161Z,99964.45
2019-03-06T08:55:26.967Z,99953.58
2019-03-06T09:00:39.258Z,99952.44
2019-03-06T09:05:53.347Z,99950.47
2019-03-06T09:10:49.429Z,99934.68
2019-03-06T09:15:45.298Z,99925.81
2019-03-06T09:20:57.641Z,99904.38
2019-03-06T09:26:10.366Z,99892.92
2019-03-06T09:31:21.702Z,99882.56
2019-03-06T09:36:32.811Z,99868.28
2019-03-06T09:41:28.576Z,99859.38
2019-03-06T09:46:39.941Z,99838.60
2019-03-06T09:51:52.072Z,99817.93
2019-03-06T09:57:04.513Z,99815.40
2019-03-06T10:02:06.662Z,99816.48
2019-03-06T10:07:00.928Z,99829.58
2019-03-06T10:11:56.697Z,99827.98
2019-03-06T10:17:01.581Z,99837.78
2019-03-06T10:21:55.604Z,99832.83
2019-03-06T10:26:49.896Z,99827.82
2019-03-06T10:31:43.747Z,99821.62
2019-03-06T10:36:37.619Z,99814.75
2019-03-06T10:41:31.499Z,99807.72
2019-03-06T10:46:25.469Z,99800.75
2019-03-06T10:51:19.364Z,99792.42
2019-03-06T10:56:13.253Z,99790.16
2019-03-06T11:01:07.324Z,99792.83
2019-03-06T11:06:01.350Z,99785.73
2019-03-06T11:10:55.313Z,99779.02
2019-03-06T11:15:55.657Z,99772.58
2019-03-06T11:20:45.399Z,99768.10
2019-03-06T11:25:39.843Z,99756.71
2019-03-06T11:30:37.535Z,99753.69
2019-03-06T11:35:31.585Z,99751.70
2019-03-06T11:40:25.546Z,99741.47
2019-03-06T11:45:19.507Z,99720.31
2019-03-06T11:50:14.994Z,99698.00
2019-03-06T11:55:11.155Z,99694.09
2019-03-06T12:00:18.979Z,99681.30
2019-03-06T12:05:13.048Z,99658.43
2019-03-06T12:10:08.224Z,99657.34
2019-03-06T12:15:04.562Z,99665.63
2019-03-06T12:20:07.534Z,99660.09
2019-03-06T12:24:54.255Z,99642.37
2019-03-06T12:29:48.214Z,99626.84
2019-03-06T12:34:42.218Z,99613.89
2019-03-06T12:39:36.091Z,99593.96
2019-03-06T12:44:30.056Z,99583.97
2019-03-06T12:49:24.352Z,99576.33
2019-03-06T12:54:18.366Z,99568.91
2019-03-06T12:59:13.406Z,99570.47
2019-03-06T13:04:07.227Z,99548.73
2019-03-06T13:09:05.003Z,99538.72
2019-03-06T13:13:58.998Z,99525.55
2019-03-06T13:18:52.858Z,99518.95
2019-03-06T13:23:46.943Z,99521.94
2019-03-06T13:28:40.790Z,99500.58
2019-03-06T13:33:42.572Z,99499.99
2019-03-06T13:38:36.730Z,99498.75
2019-03-06T13:43:30.605Z,99498.20
2019-03-06T13:48:24.677Z,99505.78
2019-03-06T13:53:20.545Z,99505.13
2019-03-06T13:58:14.864Z,99503.95
2019-03-06T14:03:08.838Z,99501.36
2019-03-06T14:08:03.883Z,99497.70
2019-03-06T14:12:57.946Z,99489.23
2019-03-06T14:17:51.988Z,99484.41
2019-03-06T14:22:45.934Z,99497.41
2019-03-06T14:27:39.931Z,99504.95
2019-03-06T14:32:33.870Z,99519.63
2019-03-06T14:37:28.644Z,99509.98
2019-03-06T14:42:22.720Z,99505.48
2019-03-06T14:47:17.223Z,99502.64
2019-03-06T14:52:11.105Z,99500.64
2019-03-06T14:57:05.094Z,99482.83
2019-03-06T15:01:58.959Z,99473.85
2019-03-06T15:06:53.283Z,99478.34
2019-03-06T15:11:47.137Z,99460.37
2019-03-06T15:16:41.229Z,99448.05
2019-03-06T15:21:35.096Z,99454.03
2019-03-06T15:26:29.099Z,99432.56
2019-03-06T15:31:22.964Z,99431.92
2019-03-06T15:36:16.916Z,99429.89
2019-03-06T15:41:11.103Z,99425.73
2019-03-06T15:46:05.152Z,99418.45
2019-03-06T15:50:59.251Z,99412.30
2019-03-06T15:55:53.580Z,99406.30
2019-03-06T16:00:47.476Z,99394.13
2019-03-06T16:05:41.732Z,99382.66
2019-03-06T16:10:35.812Z,99383.48
2019-03-06T16:15:30.137Z,99374.16
2019-03-06T16:20:24.105Z,99372.67
2019-03-06T16:25:18.158Z,99381.80
2019-03-06T16:30:17.142Z,99369.34
2019-03-06T16:35:11.130Z,99367.47
2019-03-06T16:40:08.105Z,99376.20
2019-03-06T16:45:03.576Z,99362.13
2019-03-06T16:49:57.538Z,99361.36
2019-03-06T16:54:51.505Z,99355.51
2019-03-06T16:59:45.420Z,99342.64
2019-03-06T17:04:39.654Z,99340.78
2019-03-06T17:09:33.700Z,99342.45
2019-03-06T17:14:27.680Z,99339.11
2019-03-06T17:19:21.643Z,99339.77
2019-03-06T17:24:15.652Z,99352.73
2019-03-06T17:29:11.160Z,99356.61
2019-03-06T17:34:05.069Z,99348.78
2019-03-06T17:38:59.214Z,99342.12
2019-03-06T17:43:53.088Z,99341.45
2019-03-06T17:48:46.939Z,99353.80
2019-03-06T17:53:41.033Z,99357.81
2019-03-06T17:58:34.927Z,99339.67
2019-03-06T18:03:30.723Z,99345.88
2019-03-06T18:08:24.733Z,99342.34
2019-03-06T18:13:18.783Z,99331.13
2019-03-06T18:18:12.766Z,99329.83
2019-03-06T18:23:06.899Z,99326.58
2019-03-06T18:28:00.881Z,99318.55
2019-03-06T18:32:55.061Z,99313.80
2019-03-06T18:37:49.575Z,99307.50
2019-03-06T18:42:43.680Z,99308.86
2019-03-06T18:47:37.577Z,99311.36
2019-03-06T18:52:31.464Z,99307.69
2019-03-06T18:57:25.631Z,99316.66
2019-03-06T19:02:19.559Z,99301.16
2019-03-06T19:07:13.558Z,99290.52
2019-03-06T19:12:07.626Z,99289.34
2019-03-06T19:17:01.531Z,99259.07
2019-03-06T19:21:55.389Z,99237.27
2019-03-06T19:26:49.448Z,99243.77
2019-03-06T19:31:43.566Z,99245.45
2019-03-06T19:36:37.593Z,99239.14
2019-03-06T19:41:31.526Z,99233.83
2019-03-06T19:46:25.498Z,99224.23
2019-03-06T19:51:19.551Z,99234.05
2019-03-06T19:56:13.501Z,99235.38
2019-03-06T20:01:07.628Z,99243.20
2019-03-06T20:06:01.549Z,99241.58
2019-03-06T20:10:55.432Z,99257.58
2019-03-06T20:15:49.440Z,99262.23
2019-03-06T20:20:43.549Z,99249.13
2019-03-06T20:25:37.652Z,99252.61
2019-03-06T20:30:31.730Z,99247.47
2019-03-06T20:35:25.840Z,99245.30
2019-03-06T20:40:20.672Z,99232.69
2019-03-06T20:45:16.162Z,99228.69
2019-03-06T20:50:12.260Z,99220.72
2019-03-06T20:55:08.381Z,99223.37
2019-03-06T21:00:05.201Z,99221.70
2019-03-06T21:05:00.961Z,99213.59
2019-03-06T21:09:55.058Z,99200.13
2019-03-06T21:14:48.894Z,99205.09
2019-03-06T21:19:42.866Z,99200.44
2019-03-06T21:24:36.740Z,99192.81
2019-03-06T21:29:30.811Z,99182.86
2019-03-06T21:34:24.935Z,99184.50
2019-03-06T21:39:22.720Z,99184.84
2019-03-06T21:44:16.809Z,99175.73
2019-03-06T21:49:10.700Z,99176.06
2019-03-06T21:54:04.683Z,99172.91
2019-03-06T21:58:58.673Z,99174.41
2019-03-06T22:03:52.555Z,99167.75
2019-03-06T22:08:46.525Z,99172.23
2019-03-06T22:13:40.488Z,99156.63
2019-03-06T22:18:34.681Z,99158.94
2019-03-06T22:23:28.554Z,99153.97
2019-03-06T22:28:22.510Z,99144.67
2019-03-06T22:33:16.341Z,99141.70
2019-03-06T22:38:10.207Z,99135.06
2019-03-06T22:43:04.105Z,99124.09
2019-03-06T22:47:57.989Z,99117.80
2019-03-06T22:52:51.945Z,99110.98
2019-03-06T22:57:45.930Z,99107.50
2019-03-06T23:02:40.019Z,99095.55
2019-03-06T23:07:33.952Z,99092.25
2019-03-06T23:12:27.824Z,99079.30
2019-03-06T23:17:21.689Z,99076.14
2019-03-06T23:22:15.671Z,99056.37
2019-03-06T23:27:09.513Z,99052.72
2019-03-06T23:32:03.363Z,99052.41
2019-03-06T23:36:57.252Z,99035.16
2019-03-06T23:41:51.123Z,99028.83
2019-03-06T23:46:45.089Z,99019.05
2019-03-06T23:51:40.878Z,99001.78
2019-03-06T23:56:35.143Z,99000.31
